createdAt,value
2019-02-22T00:02:40.692Z,51.62
2019-02-22T00:06:10.696Z,51.64
2019-02-22T00:09:49.092Z,51.64
2019-02-22T00:13:21.049Z,51.68
2019-02-22T00:16:51.103Z,51.71
2019-02-22T00:20:21.174Z,51.75
2019-02-22T00:23:51.276Z,51.79
2019-02-22T00:27:21.418Z,51.83
2019-02-22T00:30:51.460Z,51.86
2019-02-22T00:34:21.735Z,51.91
2019-02-22T00:37:51.905Z,51.95
2019-02-22T00:41:21.967Z,51.99
2019-02-22T00:44:52.119Z,52.04
2019-02-22T00:48:22.131Z,52.08
2019-02-22T00:51:52.223Z,52.14
2019-02-22T00:55:22.500Z,52.18
2019-02-22T00:58:52.521Z,52.23
2019-02-22T01:02:22.550Z,52.26
2019-02-22T01:05:52.574Z,52.28
2019-02-22T01:09:22.725Z,52.3
2019-02-22T01:12:52.799Z,52.31
2019-02-22T01:16:23.889Z,52.3
2019-02-22T01:19:53.914Z,52.3
2019-02-22T01:23:23.987Z,52.32
2019-02-22T01:26:54.026Z,52.31
2019-02-22T01:30:24.068Z,52.3
2019-02-22T01:33:54.337Z,52.33
2019-02-22T01:37:24.423Z,52.34
2019-02-22T01:40:54.515Z,52.36
2019-02-22T01:44:24.597Z,52.38
2019-02-22T01:47:54.624Z,52.39
2019-02-22T01:51:24.678Z,52.42
2019-02-22T01:54:54.685Z,52.42
2019-02-22T01:58:24.799Z,52.47
2019-02-22T02:00:16.200Z,52.49
2019-02-22T02:03:46.259Z,52.5
2019-02-22T02:07:16.291Z,52.52
2019-02-22T02:10:53.926Z,52.56
2019-02-22T02:14:24.566Z,52.59
2019-02-22T02:17:55.747Z,52.6
2019-02-22T02:21:25.880Z,52.65
2019-02-22T02:24:55.982Z,52.68
2019-02-22T02:28:26.144Z,52.72
2019-02-22T02:31:56.167Z,52.76
2019-02-22T02:35:26.169Z,52.81
2019-02-22T02:38:56.254Z,52.88
2019-02-22T02:42:26.373Z,52.93
2019-02-22T02:45:56.415Z,53
2019-02-22T02:49:26.462Z,53.07
2019-02-22T02:52:56.490Z,53.12
2019-02-22T02:56:26.592Z,53.2
2019-02-22T02:59:56.755Z,53.24
2019-02-22T03:03:26.727Z,53.29
2019-02-22T03:07:05.698Z,53.33
2019-02-22T03:10:35.712Z,53.39
2019-02-22T03:14:05.843Z,53.44
2019-02-22T03:17:35.965Z,53.49
2019-02-22T03:21:07.058Z,53.51
2019-02-22T03:24:37.310Z,53.56
2019-02-22T03:28:07.459Z,53.6
2019-02-22T03:31:37.439Z,53.66
2019-02-22T03:35:07.526Z,53.68
2019-02-22T03:38:37.589Z,53.77
2019-02-22T03:42:07.772Z,53.81
2019-02-22T03:45:37.933Z,53.87
2019-02-22T03:49:08.099Z,53.9
2019-02-22T03:52:43.425Z,53.96
2019-02-22T03:56:13.580Z,54.02
2019-02-22T03:59:43.623Z,54.06
2019-02-22T04:00:16.222Z,54.07
2019-02-22T04:03:46.424Z,54.09
2019-02-22T04:07:16.408Z,54.13
2019-02-22T04:10:46.471Z,54.15
2019-02-22T04:14:16.514Z,54.18
2019-02-22T04:17:46.553Z,54.22
2019-02-22T04:21:17.506Z,54.24
2019-02-22T04:24:47.608Z,54.27
2019-02-22T04:28:17.630Z,54.29
2019-02-22T04:31:47.691Z,54.32
2019-02-22T04:35:17.784Z,54.35
2019-02-22T04:38:47.836Z,54.37
2019-02-22T04:42:17.916Z,54.4
2019-02-22T04:45:48.011Z,54.43
2019-02-22T04:49:18.054Z,54.43
2019-02-22T04:52:48.205Z,54.44
2019-02-22T04:56:18.218Z,54.45
2019-02-22T04:59:48.229Z,54.48
2019-02-22T05:03:18.326Z,54.5
2019-02-22T05:06:48.375Z,54.5
2019-02-22T05:10:18.447Z,54.52
2019-02-22T05:13:48.638Z,54.55
2019-02-22T05:17:18.642Z,54.55
2019-02-22T05:20:48.702Z,54.57
2019-02-22T05:24:19.746Z,54.58
2019-02-22T05:27:49.980Z,54.63
2019-02-22T05:31:20.065Z,54.67
2019-02-22T05:34:50.141Z,54.69
2019-02-22T05:38:20.094Z,54.73
2019-02-22T05:41:50.177Z,54.74
2019-02-22T05:45:20.218Z,54.78
2019-02-22T05:48:50.281Z,54.81
2019-02-22T05:52:20.263Z,54.85
2019-02-22T05:55:50.245Z,54.87
2019-02-22T05:59:20.278Z,54.93
2019-02-22T06:00:17.201Z,54.92
2019-02-22T06:03:47.540Z,54.93
2019-02-22T06:07:17.687Z,54.97
2019-02-22T06:10:47.714Z,54.98
2019-02-22T06:14:17.746Z,55.04
2019-02-22T06:17:48.101Z,55.04
2019-02-22T06:21:18.081Z,55.08
2019-02-22T06:24:48.390Z,55.1
2019-02-22T06:28:18.508Z,55.13
2019-02-22T06:31:48.574Z,55.14
2019-02-22T06:35:18.711Z,55.17
2019-02-22T06:38:48.716Z,55.19
2019-02-22T06:42:18.635Z,55.24
2019-02-22T06:45:48.721Z,55.26
2019-02-22T06:49:18.841Z,55.26
2019-02-22T06:52:48.901Z,55.29
2019-02-22T06:56:18.924Z,55.31
2019-02-22T06:59:49.005Z,55.33
2019-02-22T07:03:19.085Z,55.34
2019-02-22T07:06:49.190Z,55.36
2019-02-22T07:10:19.278Z,55.37
2019-02-22T07:13:49.268Z,55.38
2019-02-22T07:17:19.317Z,55.4
2019-02-22T07:20:49.319Z,55.39
2019-02-22T07:24:19.422Z,55.4
2019-02-22T07:27:50.606Z,55.39
2019-02-22T07:31:20.746Z,55.38
2019-02-22T07:34:50.919Z,55.39
2019-02-22T07:38:20.958Z,55.39
2019-02-22T07:41:50.994Z,55.38
2019-02-22T07:45:21.136Z,55.38
2019-02-22T07:48:51.240Z,55.38
2019-02-22T07:52:21.340Z,55.35
2019-02-22T07:55:51.423Z,55.34
2019-02-22T07:59:21.446Z,55.31
2019-02-22T08:00:16.727Z,55.31
2019-02-22T08:03:47.150Z,55.29
2019-02-22T08:07:17.441Z,55.24
2019-02-22T08:10:47.569Z,55.19
2019-02-22T08:14:17.652Z,55.16
2019-02-22T08:17:47.818Z,55.12
2019-02-22T08:21:17.839Z,55.09
2019-02-22T08:24:47.984Z,55.05
2019-02-22T08:28:19.217Z,55.02
2019-02-22T08:31:49.326Z,54.99
2019-02-22T08:35:19.422Z,54.96
2019-02-22T08:38:49.413Z,54.92
2019-02-22T08:42:19.494Z,54.89
2019-02-22T08:45:49.611Z,54.85
2019-02-22T08:49:19.639Z,54.84
2019-02-22T08:52:49.653Z,54.78
2019-02-22T08:56:19.645Z,54.75
2019-02-22T08:59:49.758Z,54.69
2019-02-22T09:03:19.745Z,54.65
2019-02-22T09:06:52.342Z,54.61
2019-02-22T09:10:22.554Z,54.57
2019-02-22T09:13:52.713Z,54.51
2019-02-22T09:17:22.969Z,54.46
2019-02-22T09:20:53.095Z,54.41
2019-02-22T09:24:23.225Z,54.34
2019-02-22T09:27:53.327Z,54.26
2019-02-22T09:31:23.469Z,54.16
2019-02-22T09:34:53.569Z,54.09
2019-02-22T09:38:23.718Z,53.98
2019-02-22T09:41:53.777Z,53.91
2019-02-22T09:45:24.688Z,53.8
2019-02-22T09:48:54.922Z,53.73
2019-02-22T09:52:24.995Z,53.65
2019-02-22T09:55:55.307Z,53.55
2019-02-22T09:59:25.319Z,53.44
2019-02-22T10:00:16.970Z,53.43
2019-02-22T10:03:47.073Z,53.35
2019-02-22T10:07:17.185Z,53.29
2019-02-22T10:10:47.307Z,53.21
2019-02-22T10:14:17.420Z,53.17
2019-02-22T10:17:47.563Z,53.1
2019-02-22T10:21:17.615Z,53.02
2019-02-22T10:24:48.034Z,52.94
2019-02-22T10:28:18.297Z,52.84
2019-02-22T10:31:49.437Z,52.76
2019-02-22T10:35:19.397Z,52.66
2019-02-22T10:38:49.600Z,52.54
2019-02-22T10:42:19.630Z,52.45
2019-02-22T10:45:49.775Z,52.35
2019-02-22T10:49:19.856Z,52.22
2019-02-22T10:52:49.928Z,52.13
2019-02-22T10:56:20.030Z,52.02
2019-02-22T10:59:50.230Z,51.92
2019-02-22T11:03:20.295Z,51.83
2019-02-22T11:06:50.467Z,51.77
2019-02-22T11:10:20.510Z,51.72
2019-02-22T11:13:50.662Z,51.68
2019-02-22T11:17:20.659Z,51.61
2019-02-22T11:20:50.728Z,51.56
2019-02-22T11:24:20.954Z,51.52
2019-02-22T11:27:51.096Z,51.44
2019-02-22T11:31:21.160Z,51.39
2019-02-22T11:34:51.361Z,51.35
2019-02-22T11:38:21.510Z,51.27
2019-02-22T11:41:51.548Z,51.24
2019-02-22T11:45:21.707Z,51.17
2019-02-22T11:48:51.726Z,51.14
2019-02-22T11:52:21.817Z,51.06
2019-02-22T11:55:52.060Z,50.99
2019-02-22T11:59:22.050Z,50.93
2019-02-22T12:00:18.210Z,50.91
2019-02-22T12:03:48.343Z,50.83
2019-02-22T12:07:18.375Z,50.78
2019-02-22T12:10:48.560Z,50.76
2019-02-22T12:14:18.775Z,50.72
2019-02-22T12:17:48.866Z,50.68
2019-02-22T12:21:18.940Z,50.63
2019-02-22T12:24:48.988Z,50.62
2019-02-22T12:28:19.102Z,50.59
2019-02-22T12:31:49.321Z,50.55
2019-02-22T12:35:19.492Z,50.51
2019-02-22T12:38:49.633Z,50.47
2019-02-22T12:42:19.675Z,50.42
2019-02-22T12:45:49.797Z,50.42
2019-02-22T12:49:19.807Z,50.37
2019-02-22T12:52:49.908Z,50.35
2019-02-22T12:56:21.583Z,50.31
2019-02-22T13:00:02.472Z,50.26
2019-02-22T13:03:32.522Z,50.25
2019-02-22T13:07:02.653Z,50.2
2019-02-22T13:10:32.730Z,50.17
2019-02-22T13:14:02.994Z,50.14
2019-02-22T13:17:33.060Z,50.11
2019-02-22T13:21:03.229Z,50.07
2019-02-22T13:24:33.317Z,50.02
2019-02-22T13:28:03.417Z,49.96
2019-02-22T13:31:33.506Z,49.94
2019-02-22T13:35:04.045Z,49.89
2019-02-22T13:38:35.005Z,49.87
2019-02-22T13:42:05.120Z,49.84
2019-02-22T13:45:35.302Z,49.81
2019-02-22T13:49:05.817Z,49.76
2019-02-22T13:52:35.901Z,49.73
2019-02-22T13:56:06.064Z,49.7
2019-02-22T13:59:36.059Z,49.66
2019-02-22T14:00:16.484Z,49.65
2019-02-22T14:03:46.594Z,49.59
2019-02-22T14:07:16.628Z,49.57
2019-02-22T14:10:46.677Z,49.5
2019-02-22T14:14:16.826Z,49.47
2019-02-22T14:17:47.037Z,49.4
2019-02-22T14:21:17.053Z,49.38
2019-02-22T14:24:47.104Z,49.32
2019-02-22T14:28:17.073Z,49.31
2019-02-22T14:31:47.193Z,49.27
2019-02-22T14:35:17.335Z,49.25
2019-02-22T14:38:48.440Z,49.22
2019-02-22T14:42:18.697Z,49.2
2019-02-22T14:45:52.197Z,49.18
2019-02-22T14:49:23.165Z,49.18
2019-02-22T14:52:53.338Z,49.18
2019-02-22T14:56:23.541Z,49.15
2019-02-22T14:59:53.714Z,49.16
2019-02-22T15:03:23.769Z,49.14
2019-02-22T15:06:53.910Z,49.15
2019-02-22T15:10:23.903Z,49.19
2019-02-22T15:13:53.957Z,49.17
2019-02-22T15:17:30.760Z,49.21
2019-02-22T15:21:00.933Z,49.25
2019-02-22T15:24:32.969Z,49.32
2019-02-22T15:28:03.249Z,49.39
2019-02-22T15:31:36.086Z,49.45
2019-02-22T15:35:09.170Z,49.55
2019-02-22T15:38:39.138Z,49.65
2019-02-22T15:42:10.177Z,49.76
2019-02-22T15:45:40.313Z,49.85
2019-02-22T15:49:10.469Z,49.97
2019-02-22T15:52:40.613Z,50.09
2019-02-22T15:56:10.560Z,50.2
2019-02-22T15:59:40.717Z,50.33
2019-02-22T16:00:19.801Z,50.35
2019-02-22T16:03:54.135Z,50.5
2019-02-22T16:07:24.321Z,50.63
2019-02-22T16:10:54.500Z,50.75
2019-02-22T16:14:24.495Z,50.91
2019-02-22T16:17:54.602Z,51.04
2019-02-22T16:21:24.659Z,51.21
2019-02-22T16:24:54.756Z,51.35
2019-02-22T16:28:24.743Z,51.52
2019-02-22T16:31:54.850Z,51.65
2019-02-22T16:35:24.927Z,51.8
2019-02-22T16:38:55.078Z,51.95
2019-02-22T16:42:26.131Z,52.11
2019-02-22T16:45:56.148Z,52.28
2019-02-22T16:49:26.145Z,52.45
2019-02-22T16:52:56.233Z,52.61
2019-02-22T16:56:26.320Z,52.78
2019-02-22T16:59:56.366Z,52.94
2019-02-22T17:03:26.423Z,53.12
2019-02-22T17:06:56.490Z,53.29
2019-02-22T17:10:26.477Z,53.46
2019-02-22T17:13:56.551Z,53.62
2019-02-22T17:17:26.451Z,53.8
2019-02-22T17:20:56.528Z,54
2019-02-22T17:24:26.531Z,54.18
2019-02-22T17:27:56.574Z,54.36
2019-02-22T17:31:26.579Z,54.54
2019-02-22T17:34:56.644Z,54.73
2019-02-22T17:38:26.713Z,54.9
2019-02-22T17:41:56.890Z,55.08
2019-02-22T17:45:27.910Z,55.23
2019-02-22T17:48:57.974Z,55.38
2019-02-22T17:52:28.011Z,55.55
2019-02-22T17:55:58.097Z,55.71
2019-02-22T17:59:28.115Z,55.87
2019-02-22T18:00:17.829Z,55.9
2019-02-22T18:03:47.892Z,56.06
2019-02-22T18:07:17.889Z,56.21
2019-02-22T18:10:48.131Z,56.36
2019-02-22T18:14:18.292Z,56.52
2019-02-22T18:17:48.449Z,56.7
2019-02-22T18:21:18.566Z,56.86
2019-02-22T18:24:48.663Z,57.02
2019-02-22T18:28:18.774Z,57.18
2019-02-22T18:31:49.007Z,57.33
2019-02-22T18:35:18.990Z,57.46
2019-02-22T18:38:49.060Z,57.62
2019-02-22T18:42:19.037Z,57.76
2019-02-22T18:45:50.064Z,57.91
2019-02-22T18:49:20.110Z,58.04
2019-02-22T18:52:50.118Z,58.16
2019-02-22T18:56:20.139Z,58.29
2019-02-22T18:59:50.181Z,58.41
2019-02-22T19:03:20.189Z,58.55
2019-02-22T19:06:50.576Z,58.67
2019-02-22T19:10:20.702Z,58.81
2019-02-22T19:13:50.704Z,58.93
2019-02-22T19:17:30.036Z,59.07
2019-02-22T19:21:00.577Z,59.19
2019-02-22T19:24:38.931Z,59.34
2019-02-22T19:28:09.064Z,59.47
2019-02-22T19:31:39.035Z,59.59
2019-02-22T19:35:09.136Z,59.72
2019-02-22T19:38:39.261Z,59.87
2019-02-22T19:42:09.753Z,60.01
2019-02-22T19:43:42.667Z,60.04
2019-02-22T19:47:13.672Z,60.18
2019-02-22T19:50:43.580Z,60.3
2019-02-22T19:54:13.631Z,60.45
2019-02-22T19:57:54.854Z,60.59
2019-02-22T20:00:15.883Z,60.67
2019-02-22T20:03:45.890Z,60.78
2019-02-22T20:07:16.069Z,60.93
2019-02-22T20:10:46.046Z,61.05
2019-02-22T20:14:16.107Z,61.2
2019-02-22T20:17:54.301Z,61.34
2019-02-22T20:21:25.044Z,61.46
2019-02-22T20:24:55.054Z,61.58
2019-02-22T20:28:25.184Z,61.67
2019-02-22T20:31:55.173Z,61.81
2019-02-22T20:35:25.309Z,61.9
2019-02-22T20:38:55.409Z,62.01
2019-02-22T20:42:25.498Z,62.11
2019-02-22T20:45:55.603Z,62.22
2019-02-22T20:49:26.635Z,62.33
2019-02-22T20:52:56.634Z,62.41
2019-02-22T20:56:26.593Z,62.52
2019-02-22T20:59:56.571Z,62.63
2019-02-22T21:03:26.670Z,62.73
2019-02-22T21:06:56.639Z,62.82
2019-02-22T21:10:26.707Z,62.92
2019-02-22T21:13:56.725Z,63.01
2019-02-22T21:17:26.785Z,63.11
2019-02-22T21:20:56.832Z,63.22
2019-02-22T21:24:27.001Z,63.29
2019-02-22T21:27:56.985Z,63.37
2019-02-22T21:31:27.200Z,63.46
2019-02-22T21:34:57.397Z,63.54
2019-02-22T21:38:27.514Z,63.64
2019-02-22T21:41:57.571Z,63.72
2019-02-22T21:45:27.641Z,63.83
2019-02-22T21:48:57.620Z,63.89
2019-02-22T21:52:27.789Z,63.97
2019-02-22T21:55:57.838Z,64.08
2019-02-22T21:59:28.056Z,64.15
2019-02-22T22:00:16.646Z,64.2
2019-02-22T22:03:46.674Z,64.27
2019-02-22T22:07:16.802Z,64.39
2019-02-22T22:10:46.861Z,64.46
2019-02-22T22:14:17.009Z,64.57
2019-02-22T22:17:47.167Z,64.63
2019-02-22T22:21:17.196Z,64.69
2019-02-22T22:24:47.215Z,64.76
2019-02-22T22:28:17.474Z,64.84
2019-02-22T22:31:47.563Z,64.89
2019-02-22T22:35:17.779Z,64.99
2019-02-22T22:38:47.712Z,65.06
2019-02-22T22:42:17.839Z,65.12
2019-02-22T22:45:47.810Z,65.18
2019-02-22T22:49:17.955Z,65.23
2019-02-22T22:52:49.038Z,65.3
2019-02-22T22:56:19.016Z,65.37
2019-02-22T22:59:49.009Z,65.43
2019-02-22T23:03:19.390Z,65.5
2019-02-22T23:06:49.395Z,65.54
2019-02-22T23:10:19.727Z,65.6
2019-02-22T23:13:49.711Z,65.64
2019-02-22T23:17:19.801Z,65.72
2019-02-22T23:20:49.921Z,65.77
2019-02-22T23:24:20.026Z,65.81
2019-02-22T23:27:50.072Z,65.85
2019-02-22T23:31:20.142Z,65.91
2019-02-22T23:34:50.174Z,65.98
2019-02-22T23:38:20.265Z,66.06
2019-02-22T23:41:50.247Z,66.11
2019-02-22T23:45:20.429Z,66.18
2019-02-22T23:48:50.472Z,66.22
2019-02-22T23:52:20.495Z,66.29
2019-02-22T23:55:51.413Z,66.35
2019-02-22T23:59:21.426Z,66.39
